createdAt,value
2018-03-24T00:02:13.238Z,99.90
2018-03-24T00:04:41.599Z,99.90
2018-03-24T00:07:10.674Z,99.90
2018-03-24T00:09:39.778Z,99.90
2018-03-24T00:12:08.858Z,99.90
2018-03-24T00:14:37.978Z,99.90
2018-03-24T00:17:06.303Z,99.90
2018-03-24T00:19:34.626Z,99.90
2018-03-24T00:22:03.696Z,99.90
2018-03-24T00:24:32.101Z,99.90
2018-03-24T00:27:00.429Z,99.90
2018-03-24T00:29:28.766Z,99.90
2018-03-24T00:31:57.090Z,99.90
2018-03-24T00:34:25.437Z,99.90
2018-03-24T00:36:53.754Z,99.90
2018-03-24T00:39:22.170Z,99.90
2018-03-24T00:44:20.890Z,99.90
2018-03-24T00:46:49.186Z,99.90
2018-03-24T00:49:17.554Z,99.90
2018-03-24T00:51:45.874Z,99.90
2018-03-24T00:54:14.368Z,99.90
2018-03-24T00:56:43.449Z,99.90
2018-03-24T00:59:11.802Z,99.90
2018-03-24T01:01:40.108Z,99.90
2018-03-24T01:04:09.202Z,99.90
2018-03-24T01:06:38.322Z,99.90
2018-03-24T01:09:06.661Z,99.90
2018-03-24T01:11:34.994Z,99.90
2018-03-24T01:14:03.297Z,99.90
2018-03-24T01:16:31.634Z,99.90
2018-03-24T01:18:59.942Z,99.90
2018-03-24T01:21:28.279Z,99.90
2018-03-24T01:23:57.374Z,99.90
2018-03-24T01:26:26.778Z,99.90
2018-03-24T01:28:55.859Z,99.90
2018-03-24T01:31:24.971Z,99.90
2018-03-24T01:33:53.336Z,99.90
2018-03-24T01:36:22.449Z,99.90
2018-03-24T01:38:50.758Z,99.90
2018-03-24T01:41:19.101Z,99.90
2018-03-24T01:43:47.411Z,99.90
2018-03-24T01:46:15.759Z,99.90
2018-03-24T01:48:44.082Z,99.90
2018-03-24T01:51:12.447Z,99.90
2018-03-24T01:53:52.653Z,99.90
2018-03-24T01:56:21.345Z,99.90
2018-03-24T01:58:49.926Z,99.90
2018-03-24T02:01:18.402Z,99.90
2018-03-24T02:03:47.549Z,99.90
2018-03-24T02:06:16.658Z,99.90
2018-03-24T02:08:45.009Z,99.90
2018-03-24T02:11:13.323Z,99.90
2018-03-24T02:13:41.694Z,99.90
2018-03-24T02:16:10.842Z,99.90
2018-03-24T02:18:39.187Z,99.90
2018-03-24T02:21:09.110Z,99.90
2018-03-24T02:23:37.470Z,99.90
2018-03-24T02:26:05.777Z,99.90
2018-03-24T02:28:34.150Z,99.90
2018-03-24T02:31:03.244Z,99.90
2018-03-24T02:33:32.361Z,99.90
2018-03-24T02:36:00.815Z,99.90
2018-03-24T02:38:29.926Z,99.90
2018-03-24T02:40:58.231Z,99.90
2018-03-24T02:43:26.574Z,99.90
2018-03-24T02:45:54.890Z,99.90
2018-03-24T02:48:23.326Z,99.90
2018-03-24T02:50:52.420Z,99.90
2018-03-24T02:53:20.772Z,99.90
2018-03-24T02:55:49.892Z,99.90
2018-03-24T02:58:18.234Z,99.90
2018-03-24T03:00:46.546Z,99.90
2018-03-24T03:03:14.919Z,99.90
2018-03-24T03:05:43.995Z,99.90
2018-03-24T03:08:13.084Z,99.90
2018-03-24T03:10:41.418Z,99.90
2018-03-24T03:13:09.736Z,99.90
2018-03-24T03:15:38.867Z,99.90
2018-03-24T03:18:07.958Z,99.90
2018-03-24T03:20:36.309Z,99.90
2018-03-24T03:23:06.122Z,99.90
2018-03-24T03:25:34.487Z,99.90
2018-03-24T03:28:02.829Z,99.90
2018-03-24T03:30:31.158Z,99.90
2018-03-24T03:32:59.485Z,99.90
2018-03-24T03:35:27.851Z,99.90
2018-03-24T03:37:56.170Z,99.90
2018-03-24T03:40:24.791Z,99.90
2018-03-24T03:42:53.845Z,99.90
2018-03-24T03:45:22.188Z,99.90
2018-03-24T03:47:50.543Z,99.90
2018-03-24T03:50:18.880Z,99.90
2018-03-24T03:52:47.198Z,99.90
2018-03-24T03:55:15.538Z,99.90
2018-03-24T03:57:43.890Z,99.90
2018-03-24T04:00:12.201Z,99.90
2018-03-24T04:02:40.536Z,99.90
2018-03-24T04:05:08.842Z,99.90
2018-03-24T04:07:37.197Z,99.90
2018-03-24T04:10:05.521Z,99.90
2018-03-24T04:12:34.939Z,99.90
2018-03-24T04:15:03.246Z,99.90
2018-03-24T04:17:31.579Z,99.90
2018-03-24T04:20:00.649Z,99.90
2018-03-24T04:22:29.058Z,99.90
2018-03-24T04:24:57.394Z,99.90
2018-03-24T04:27:25.729Z,99.90
2018-03-24T04:29:54.046Z,99.90
2018-03-24T04:32:22.388Z,99.90
2018-03-24T04:34:50.767Z,99.90
2018-03-24T04:37:19.107Z,99.90
2018-03-24T04:39:47.402Z,99.90
2018-03-24T04:42:15.759Z,99.90
2018-03-24T04:44:44.068Z,99.90
2018-03-24T04:47:12.414Z,99.90
2018-03-24T04:49:40.802Z,99.90
2018-03-24T04:52:09.170Z,99.90
2018-03-24T04:54:38.251Z,99.90
2018-03-24T04:57:06.570Z,99.90
2018-03-24T04:59:34.914Z,99.90
2018-03-24T05:02:04.002Z,99.90
2018-03-24T05:04:33.113Z,99.90
2018-03-24T05:07:02.212Z,99.90
2018-03-24T05:09:31.347Z,99.90
2018-03-24T05:11:59.679Z,99.90
2018-03-24T05:14:28.850Z,99.90
2018-03-24T05:16:57.169Z,99.90
2018-03-24T05:19:25.542Z,99.90
2018-03-24T05:21:54.618Z,99.90
2018-03-24T05:24:23.829Z,99.90
2018-03-24T05:26:52.926Z,99.90
2018-03-24T05:29:21.278Z,99.90
2018-03-24T05:31:50.406Z,99.90
2018-03-24T05:34:18.778Z,99.90
2018-03-24T05:36:47.214Z,99.90
2018-03-24T05:39:15.561Z,99.90
2018-03-24T05:41:43.863Z,99.90
2018-03-24T05:44:12.203Z,99.90
2018-03-24T05:46:40.550Z,99.90
2018-03-24T05:49:08.916Z,99.90
2018-03-24T05:51:38.006Z,99.90
2018-03-24T05:54:06.358Z,99.90
2018-03-24T05:56:34.693Z,99.90
2018-03-24T05:59:03.803Z,99.90
2018-03-24T06:01:32.102Z,99.90
2018-03-24T06:04:00.452Z,99.90
2018-03-24T06:06:28.785Z,99.90
2018-03-24T06:08:57.111Z,99.90
2018-03-24T06:11:25.450Z,99.90
2018-03-24T06:13:54.546Z,99.90
2018-03-24T06:16:22.940Z,99.90
2018-03-24T06:18:52.059Z,99.90
2018-03-24T06:21:20.398Z,99.90
2018-03-24T06:23:48.797Z,99.90
2018-03-24T06:26:17.898Z,99.90
2018-03-24T06:28:46.962Z,99.90
2018-03-24T06:31:17.915Z,99.90
2018-03-24T06:33:46.247Z,99.90
2018-03-24T06:36:16.059Z,99.90
2018-03-24T06:38:45.196Z,99.90
2018-03-24T06:41:14.303Z,99.90
2018-03-24T06:43:43.374Z,99.90
2018-03-24T06:46:11.716Z,99.90
2018-03-24T06:48:40.047Z,99.90
2018-03-24T06:51:09.146Z,99.90
2018-03-24T06:53:37.482Z,99.90
2018-03-24T06:56:05.839Z,99.90
2018-03-24T06:58:34.182Z,99.90
2018-03-24T07:01:03.298Z,99.90
2018-03-24T07:03:31.606Z,99.90
2018-03-24T07:05:59.903Z,99.90
2018-03-24T07:08:29.026Z,99.90
2018-03-24T07:10:57.346Z,99.90
2018-03-24T07:13:25.712Z,99.90
2018-03-24T07:15:54.030Z,99.90
2018-03-24T07:18:23.150Z,99.90
2018-03-24T07:20:51.494Z,99.90
2018-03-24T07:23:20.626Z,99.90
2018-03-24T07:25:48.940Z,99.90
2018-03-24T07:28:17.258Z,99.90
2018-03-24T07:30:46.370Z,99.90
2018-03-24T07:33:15.477Z,99.90
2018-03-24T07:35:43.786Z,99.90
2018-03-24T07:38:12.107Z,99.90
2018-03-24T07:40:41.178Z,99.90
2018-03-24T07:43:09.507Z,99.90
2018-03-24T07:45:37.826Z,99.90
2018-03-24T07:48:06.162Z,99.90
2018-03-24T07:50:34.731Z,99.90
2018-03-24T07:53:03.110Z,99.90
2018-03-24T07:55:31.791Z,99.90
2018-03-24T07:58:00.142Z,99.90
2018-03-24T08:00:29.242Z,99.90
2018-03-24T08:02:57.567Z,99.90
2018-03-24T08:05:25.878Z,99.90
2018-03-24T08:07:54.202Z,99.90
2018-03-24T08:10:22.572Z,99.90
2018-03-24T08:12:51.640Z,99.90
2018-03-24T08:15:20.755Z,99.90
2018-03-24T08:17:49.047Z,99.90
2018-03-24T08:20:17.418Z,99.90
2018-03-24T08:22:45.730Z,99.90
2018-03-24T08:25:14.383Z,99.90
2018-03-24T08:27:42.711Z,99.90
2018-03-24T08:30:11.060Z,99.90
2018-03-24T08:32:39.358Z,99.90
2018-03-24T08:35:07.708Z,99.90
2018-03-24T08:37:36.005Z,99.90
2018-03-24T08:40:04.350Z,99.90
2018-03-24T08:42:33.074Z,99.90
2018-03-24T08:45:01.414Z,99.90
2018-03-24T08:47:30.470Z,99.90
2018-03-24T08:49:59.582Z,99.90
2018-03-24T08:52:28.990Z,99.90
2018-03-24T08:54:58.143Z,99.90
2018-03-24T08:57:26.458Z,99.90
2018-03-24T08:59:54.859Z,99.90
2018-03-24T09:02:23.234Z,99.90
2018-03-24T09:04:51.569Z,99.90
2018-03-24T09:07:19.922Z,99.90
2018-03-24T09:09:48.299Z,99.90
2018-03-24T09:12:16.615Z,99.90
2018-03-24T09:14:45.717Z,99.90
2018-03-24T09:17:14.078Z,99.90
2018-03-24T09:19:43.186Z,99.90
2018-03-24T09:22:12.339Z,99.90
2018-03-24T09:24:40.878Z,99.90
2018-03-24T09:27:09.254Z,99.90
2018-03-24T09:29:38.556Z,99.90
2018-03-24T09:32:06.899Z,99.90
2018-03-24T09:34:35.994Z,99.90
2018-03-24T09:37:05.138Z,99.90
2018-03-24T09:39:33.454Z,99.90
2018-03-24T09:42:01.803Z,99.90
2018-03-24T09:44:30.126Z,99.90
2018-03-24T09:46:59.244Z,99.90
2018-03-24T09:49:27.561Z,99.90
2018-03-24T09:51:55.925Z,99.90
2018-03-24T09:54:24.333Z,99.90
2018-03-24T09:56:52.704Z,99.90
2018-03-24T09:59:21.059Z,99.90
2018-03-24T10:01:49.418Z,99.90
2018-03-24T10:04:18.492Z,99.90
2018-03-24T10:06:46.862Z,99.90
2018-03-24T10:09:15.954Z,99.90
2018-03-24T10:11:45.793Z,99.90
2018-03-24T10:14:14.171Z,99.90
2018-03-24T10:16:43.257Z,99.90
2018-03-24T10:19:11.631Z,99.90
2018-03-24T10:35:05.901Z,99.90
2018-03-24T10:37:39.873Z,99.90
2018-03-24T10:40:08.218Z,99.90
2018-03-24T10:42:36.538Z,99.90
2018-03-24T10:45:05.153Z,99.90
2018-03-24T10:47:34.218Z,99.90
2018-03-24T10:50:02.601Z,99.90
2018-03-24T10:52:30.914Z,99.90
2018-03-24T10:54:59.270Z,99.90
2018-03-24T10:57:28.358Z,99.90
2018-03-24T10:59:57.475Z,99.90
2018-03-24T11:02:25.787Z,99.90
2018-03-24T11:04:54.106Z,99.90
2018-03-24T11:07:24.246Z,99.40
2018-03-24T11:09:52.606Z,99.40
2018-03-24T11:12:20.992Z,98.20
2018-03-24T11:14:49.504Z,97.00
2018-03-24T11:17:17.830Z,96.30
2018-03-24T11:19:46.189Z,95.80
2018-03-24T11:22:14.507Z,95.80
2018-03-24T11:24:43.635Z,96.20
2018-03-24T11:27:11.991Z,96.20
2018-03-24T11:29:40.330Z,95.10
2018-03-24T11:32:08.691Z,95.90
2018-03-24T11:34:36.979Z,96.50
2018-03-24T11:37:05.391Z,96.30
2018-03-24T11:39:34.474Z,94.90
2018-03-24T11:42:03.612Z,94.50
2018-03-24T11:44:31.939Z,94.50
2018-03-24T11:47:00.310Z,94.80
2018-03-24T11:49:28.626Z,94.30
2018-03-24T11:51:57.306Z,94.50
2018-03-24T11:54:37.562Z,94.70
2018-03-24T11:57:06.663Z,91.10
2018-03-24T11:59:34.970Z,91.40
2018-03-24T12:02:03.351Z,90.70
2018-03-24T12:04:31.672Z,90.50
2018-03-24T12:07:00.019Z,85.90
2018-03-24T12:09:28.346Z,84.50
2018-03-24T12:11:56.690Z,80.10
2018-03-24T12:14:25.055Z,80.40
2018-03-24T12:16:53.446Z,78.70
2018-03-24T12:19:21.794Z,78.70
2018-03-24T12:21:50.147Z,76.90
2018-03-24T12:24:18.500Z,72.50
2018-03-24T12:26:46.868Z,72.10
2018-03-24T12:29:16.050Z,65.40
2018-03-24T12:31:44.975Z,64.30
2018-03-24T12:34:13.359Z,57.70
2018-03-24T12:36:42.432Z,58.30
2018-03-24T12:39:11.544Z,59.60
2018-03-24T12:41:39.854Z,59.60
2018-03-24T12:44:08.186Z,63.20
2018-03-24T12:46:37.302Z,69.40
2018-03-24T12:49:05.659Z,69.20
2018-03-24T12:51:34.744Z,72.40
2018-03-24T12:54:03.858Z,74.60
2018-03-24T12:56:32.207Z,74.60
2018-03-24T12:59:01.330Z,66.60
2018-03-24T13:01:29.678Z,66.50
2018-03-24T13:03:58.801Z,67.50
2018-03-24T13:06:27.866Z,67.80
2018-03-24T13:08:56.211Z,67.90
2018-03-24T13:11:24.555Z,69.40
2018-03-24T13:13:54.048Z,65.70
2018-03-24T13:16:23.123Z,62.70
2018-03-24T13:18:52.224Z,62.20
2018-03-24T13:21:20.542Z,62.20
2018-03-24T13:23:48.947Z,60.60
2018-03-24T13:26:17.263Z,60.60
2018-03-24T13:28:45.598Z,57.90
2018-03-24T13:31:13.955Z,56.90
2018-03-24T13:33:42.344Z,55.60
2018-03-24T13:36:10.646Z,55.00
2018-03-24T13:38:38.949Z,54.60
2018-03-24T13:41:08.063Z,56.10
2018-03-24T13:43:36.375Z,56.00
2018-03-24T13:46:05.122Z,56.50
2018-03-24T13:48:33.450Z,58.60
2018-03-24T13:51:01.878Z,59.60
2018-03-24T13:53:30.960Z,68.70
2018-03-24T13:56:00.066Z,70.30
2018-03-24T13:58:28.383Z,70.30
2018-03-24T14:00:56.718Z,73.20
2018-03-24T14:03:25.795Z,78.90
2018-03-24T14:05:54.914Z,80.00
2018-03-24T14:08:23.287Z,79.90
2018-03-24T14:10:51.648Z,81.00
2018-03-24T14:13:20.740Z,83.10
2018-03-24T14:15:49.856Z,83.80
2018-03-24T14:18:18.186Z,83.80
2018-03-24T14:20:46.549Z,85.70
2018-03-24T14:23:14.892Z,85.70
2018-03-24T14:25:43.267Z,85.60
2018-03-24T14:28:11.582Z,84.90
2018-03-24T14:30:39.914Z,84.30
2018-03-24T14:33:08.238Z,85.00
2018-03-24T14:35:36.595Z,86.90
2018-03-24T14:38:04.947Z,87.20
2018-03-24T14:40:33.298Z,87.90
2018-03-24T14:43:01.640Z,88.30
2018-03-24T14:45:30.286Z,90.00
2018-03-24T14:47:59.386Z,90.00
2018-03-24T14:50:27.694Z,90.00
2018-03-24T14:52:56.105Z,88.40
2018-03-24T14:55:24.430Z,88.10
2018-03-24T14:57:52.767Z,89.10
2018-03-24T15:00:22.101Z,89.90
2018-03-24T15:02:50.510Z,89.70
2018-03-24T15:05:18.990Z,89.60
2018-03-24T15:07:47.374Z,90.40
2018-03-24T15:10:16.607Z,90.30
2018-03-24T15:12:45.002Z,90.30
2018-03-24T15:15:13.472Z,90.10
2018-03-24T15:17:42.605Z,90.30
2018-03-24T15:20:10.926Z,90.30
2018-03-24T15:22:39.254Z,90.10
2018-03-24T15:25:08.612Z,89.20
2018-03-24T15:27:37.934Z,90.00
2018-03-24T15:30:18.195Z,89.90
2018-03-24T15:32:54.107Z,90.00
2018-03-24T15:35:38.192Z,89.90
2018-03-24T15:38:06.674Z,90.20
2018-03-24T15:40:34.997Z,89.50
2018-03-24T15:43:03.346Z,89.50
2018-03-24T15:45:32.498Z,87.50
2018-03-24T15:48:01.210Z,87.40
2018-03-24T15:50:29.536Z,89.10
2018-03-24T15:55:32.862Z,91.90
2018-03-24T15:58:01.229Z,92.80
2018-03-24T16:00:29.538Z,93.40
2018-03-24T16:02:58.614Z,94.40
2018-03-24T16:05:28.050Z,95.00
2018-03-24T16:07:56.370Z,94.90
2018-03-24T16:10:24.723Z,95.20
2018-03-24T16:12:53.798Z,95.90
2018-03-24T16:15:22.163Z,95.90
2018-03-24T16:17:50.449Z,96.10
2018-03-24T16:20:18.834Z,96.80
2018-03-24T16:22:47.416Z,96.60
2018-03-24T16:25:15.827Z,96.80
2018-03-24T16:27:44.957Z,97.30
2018-03-24T16:30:14.074Z,97.80
2018-03-24T16:32:42.484Z,97.50
2018-03-24T16:35:10.839Z,97.90
2018-03-24T16:37:39.245Z,98.60
2018-03-24T16:40:07.562Z,98.60
2018-03-24T16:42:36.660Z,98.50
2018-03-24T16:45:05.018Z,98.40
2018-03-24T16:47:33.330Z,98.70
2018-03-24T16:50:01.648Z,98.70
2018-03-24T16:52:29.991Z,98.80
2018-03-24T16:54:58.310Z,98.50
2018-03-24T16:57:26.674Z,98.70
2018-03-24T16:59:55.023Z,99.00
2018-03-24T17:02:24.130Z,99.60
2018-03-24T17:04:52.454Z,99.50
2018-03-24T17:07:20.806Z,99.70
2018-03-24T17:09:49.131Z,99.90
2018-03-24T17:12:18.246Z,99.90
2018-03-24T17:14:46.566Z,99.90
2018-03-24T17:17:14.926Z,99.90
2018-03-24T17:19:43.235Z,99.90
2018-03-24T17:22:11.590Z,99.90
2018-03-24T17:24:40.242Z,99.90
2018-03-24T17:27:09.918Z,99.90
2018-03-24T17:29:38.237Z,99.90
2018-03-24T17:32:13.207Z,99.90
2018-03-24T17:34:41.514Z,99.90
2018-03-24T17:37:09.854Z,99.90
2018-03-24T17:39:38.164Z,99.90
2018-03-24T17:42:06.610Z,99.90
2018-03-24T17:44:34.937Z,99.90
2018-03-24T17:47:03.258Z,99.90
2018-03-24T17:49:31.654Z,99.90
2018-03-24T17:51:59.922Z,99.90
2018-03-24T17:54:28.347Z,99.90
2018-03-24T17:56:56.683Z,99.90
2018-03-24T18:02:23.684Z,99.90
2018-03-24T18:07:50.829Z,99.90
2018-03-24T18:10:19.639Z,99.90
2018-03-24T18:12:47.975Z,99.90
2018-03-24T18:15:16.316Z,99.90
2018-03-24T18:17:44.730Z,99.90
2018-03-24T18:20:13.363Z,99.90
2018-03-24T18:22:42.004Z,99.90
2018-03-24T18:25:10.874Z,99.90
2018-03-24T18:27:39.415Z,99.90
2018-03-24T18:30:07.915Z,99.90
2018-03-24T18:32:36.402Z,99.90
2018-03-24T18:35:04.835Z,99.90
2018-03-24T18:37:33.254Z,99.90
2018-03-24T18:40:02.002Z,99.90
2018-03-24T18:42:30.361Z,99.90
2018-03-24T18:44:59.606Z,99.90
2018-03-24T18:47:27.934Z,99.90
2018-03-24T18:49:56.279Z,99.90
2018-03-24T18:52:24.620Z,99.90
2018-03-24T18:54:52.988Z,99.90
2018-03-24T18:57:22.173Z,99.90
2018-03-24T18:59:50.908Z,99.90
2018-03-24T19:02:19.254Z,99.90
2018-03-24T19:04:47.862Z,99.90
2018-03-24T19:07:16.205Z,99.90
2018-03-24T19:09:44.686Z,99.90
2018-03-24T19:12:13.010Z,99.90
2018-03-24T19:14:41.328Z,99.90
2018-03-24T19:17:10.941Z,99.90
2018-03-24T19:19:39.274Z,99.90
2018-03-24T19:22:07.726Z,99.90
2018-03-24T19:24:36.258Z,99.90
2018-03-24T19:27:04.957Z,99.90
2018-03-24T19:29:36.801Z,99.90
2018-03-24T19:32:05.636Z,99.90
2018-03-24T19:34:34.734Z,99.90
2018-03-24T19:37:04.055Z,99.90
2018-03-24T19:39:32.494Z,99.90
2018-03-24T19:42:01.958Z,99.90
2018-03-24T19:44:30.373Z,99.90
2018-03-24T19:46:59.394Z,99.90
2018-03-24T19:49:27.972Z,99.90
2018-03-24T19:51:56.310Z,99.90
2018-03-24T19:54:25.444Z,99.90
2018-03-24T19:56:53.916Z,99.90
2018-03-24T19:59:22.613Z,99.90
2018-03-24T20:01:51.099Z,99.90
2018-03-24T20:04:20.166Z,99.90
2018-03-24T20:06:48.623Z,99.90
2018-03-24T20:09:17.010Z,99.90
2018-03-24T20:11:45.310Z,99.90
2018-03-24T20:14:14.640Z,99.90
2018-03-24T20:16:43.318Z,99.90
2018-03-24T20:19:12.425Z,99.90
2018-03-24T20:21:40.852Z,99.90
2018-03-24T20:24:10.309Z,99.90
2018-03-24T20:26:38.641Z,99.90
2018-03-24T20:29:07.987Z,99.90
2018-03-24T20:31:37.043Z,99.90
2018-03-24T20:34:06.191Z,99.90
2018-03-24T20:36:34.689Z,99.90
2018-03-24T20:39:03.102Z,99.90
2018-03-24T20:41:32.410Z,99.90
2018-03-24T20:44:00.770Z,99.90
2018-03-24T20:46:29.128Z,99.90
2018-03-24T20:48:57.463Z,99.90
2018-03-24T20:51:27.027Z,99.90
2018-03-24T20:53:55.364Z,99.90
2018-03-24T20:56:23.822Z,99.90
2018-03-24T20:58:52.306Z,99.90
2018-03-24T21:01:21.869Z,99.90
2018-03-24T21:03:50.254Z,99.90
2018-03-24T21:06:18.665Z,99.90
2018-03-24T21:08:47.026Z,99.90
2018-03-24T21:11:15.814Z,99.90
2018-03-24T21:13:44.385Z,99.90
2018-03-24T21:16:13.621Z,99.90
2018-03-24T21:18:41.930Z,99.90
2018-03-24T21:21:10.391Z,99.90
2018-03-24T21:23:39.039Z,99.90
2018-03-24T21:26:07.476Z,99.90
2018-03-24T21:28:35.845Z,99.90
2018-03-24T21:31:04.295Z,99.90
2018-03-24T21:33:32.781Z,99.90
2018-03-24T21:36:01.180Z,99.90
2018-03-24T21:38:29.907Z,99.90
2018-03-24T21:40:59.022Z,99.90
2018-03-24T21:43:27.378Z,99.90
2018-03-24T21:45:55.798Z,99.90
2018-03-24T21:48:24.351Z,99.90
2018-03-24T21:50:52.980Z,99.90
2018-03-24T21:53:21.314Z,99.90
2018-03-24T21:55:49.925Z,99.90
2018-03-24T21:58:19.178Z,99.90
2018-03-24T22:00:47.526Z,99.90
2018-03-24T22:03:15.829Z,99.90
2018-03-24T22:05:44.347Z,99.90
2018-03-24T22:08:12.675Z,99.90
2018-03-24T22:10:42.532Z,99.90
2018-03-24T22:13:10.883Z,99.90
2018-03-24T22:15:39.274Z,99.90
2018-03-24T22:18:08.368Z,99.90
2018-03-24T22:20:37.446Z,99.90
2018-03-24T22:23:05.782Z,99.90
2018-03-24T22:25:34.082Z,99.90
2018-03-24T22:28:02.425Z,99.90
2018-03-24T22:30:31.683Z,99.90
2018-03-24T22:33:00.025Z,99.90
2018-03-24T22:35:28.358Z,99.90
2018-03-24T22:37:56.750Z,99.90
2018-03-24T22:40:25.063Z,99.90
2018-03-24T22:42:53.399Z,99.90
2018-03-24T22:45:21.754Z,99.90
2018-03-24T22:47:51.247Z,99.90
2018-03-24T22:50:19.594Z,99.90
2018-03-24T22:52:48.742Z,99.90
2018-03-24T22:55:17.814Z,99.90
2018-03-24T22:57:46.146Z,99.90
2018-03-24T23:00:14.480Z,99.90
2018-03-24T23:02:42.861Z,99.90
2018-03-24T23:05:11.154Z,99.90
2018-03-24T23:07:39.502Z,99.90
2018-03-24T23:10:07.806Z,99.90
2018-03-24T23:12:36.165Z,99.90
2018-03-24T23:15:04.497Z,99.90
2018-03-24T23:17:32.870Z,99.90
2018-03-24T23:20:01.259Z,99.90
2018-03-24T23:22:29.634Z,99.90
2018-03-24T23:24:57.957Z,99.90
2018-03-24T23:27:26.281Z,99.90
2018-03-24T23:29:54.649Z,99.90
2018-03-24T23:32:22.942Z,99.90
2018-03-24T23:34:52.189Z,99.90
2018-03-24T23:37:20.533Z,99.90
2018-03-24T23:39:49.769Z,99.90
2018-03-24T23:42:18.838Z,99.90
2018-03-24T23:44:48.338Z,99.90
2018-03-24T23:47:16.685Z,99.90
2018-03-24T23:49:45.814Z,99.90
2018-03-24T23:52:15.037Z,99.90
2018-03-24T23:54:43.437Z,99.90
2018-03-24T23:57:11.750Z,99.90
2018-03-24T23:59:40.153Z,99.90
